Honeoye Falls, New York
Current Conditions -  °F | °C
As of 6:54 PM on Tuesday 25 Nov 2014 (Local Time) from KROC Reporting Station
Light Snow Light Snow  
Wind Chill: 28°   Ceiling: 1800
Heat Index: 36°   Visibility: 6mi
Dew Point: 31°   Wind: 12mph
Humidity: 82%   Direction: 280°W
Pressure: 30.09"   Gusts: 23mph
Location:  42.95°N, 77.59°W
Report Text: KROC 252354Z 28010G20KT 6SM -RASN BKN018 OVC023 02/M01 A3009 RMK AO2 SNB41 SLP198 P0000 60000 T00221006 10067 20022 51038
Loading
Personal Weather Stations






























Interactive Weather Map New forecast layout! Learn more

10-Day Weather Forecast

Advertisements
Track Severe Weather on mobile